createdAt,value
2023-05-06T00:00:29.686Z,82.30
2023-05-06T00:05:31.990Z,82.20
2023-05-06T00:10:35.786Z,82.20
2023-05-06T00:15:39.476Z,82.30
2023-05-06T00:20:41.944Z,82.30
2023-05-06T00:25:45.786Z,82.30
2023-05-06T00:30:48.006Z,82.20
2023-05-06T00:35:51.930Z,82.10
2023-05-06T00:40:55.665Z,82.10
2023-05-06T00:45:58.013Z,82.30
2023-05-06T00:51:00.293Z,82.40
2023-05-06T00:56:04.472Z,82.50
2023-05-06T01:01:06.979Z,82.60
2023-05-06T01:06:15.271Z,82.70
2023-05-06T01:11:24.695Z,83.00
2023-05-06T01:16:28.754Z,83.10
2023-05-06T01:21:31.377Z,82.80
2023-05-06T01:26:35.099Z,82.70
2023-05-06T01:31:42.992Z,83.00
2023-05-06T01:36:54.970Z,83.20
2023-05-06T01:42:01.888Z,83.50
2023-05-06T01:47:05.700Z,83.30
2023-05-06T01:52:07.986Z,83.20
2023-05-06T01:57:11.745Z,83.10
2023-05-06T02:02:13.964Z,83.20
2023-05-06T02:07:16.173Z,83.20
2023-05-06T02:12:19.852Z,83.20
2023-05-06T02:17:22.173Z,83.20
2023-05-06T02:22:24.423Z,83.20
2023-05-06T02:27:28.152Z,83.10
2023-05-06T02:32:30.413Z,83.50
2023-05-06T02:37:32.711Z,84.60
2023-05-06T02:42:36.514Z,83.60
2023-05-06T02:47:38.824Z,84.00
2023-05-06T02:52:41.101Z,84.10
2023-05-06T02:57:44.896Z,84.30
2023-05-06T03:02:47.215Z,84.50
2023-05-06T03:07:49.476Z,84.40
2023-05-06T03:12:53.280Z,84.30
2023-05-06T03:17:55.743Z,84.50
2023-05-06T03:22:58.058Z,84.60
2023-05-06T03:28:01.931Z,84.70
2023-05-06T03:33:04.317Z,84.80
2023-05-06T03:38:06.674Z,84.80
2023-05-06T03:43:10.379Z,84.10
2023-05-06T03:48:12.689Z,83.80
2023-05-06T03:53:15.067Z,84.50
2023-05-06T03:58:18.820Z,85.00
2023-05-06T04:03:21.099Z,85.50
2023-05-06T04:08:23.538Z,85.80
2023-05-06T04:13:27.201Z,85.80
2023-05-06T04:18:29.442Z,86.40
2023-05-06T04:23:32.077Z,86.10
2023-05-06T04:28:36.001Z,86.60
2023-05-06T04:33:38.247Z,86.10
2023-05-06T04:38:40.547Z,86.60
2023-05-06T04:43:44.353Z,86.60
2023-05-06T04:48:46.607Z,86.60
2023-05-06T04:53:48.847Z,88.50
2023-05-06T04:58:52.529Z,89.80
2023-05-06T05:03:54.771Z,90.60
2023-05-06T05:08:57.141Z,90.00
2023-05-06T05:14:02.091Z,90.90
2023-05-06T05:19:05.753Z,90.70
2023-05-06T05:24:10.070Z,90.50
2023-05-06T05:29:13.794Z,90.40
2023-05-06T05:34:16.072Z,90.90
2023-05-06T05:39:18.395Z,90.80
2023-05-06T05:44:22.025Z,90.80
2023-05-06T05:49:24.288Z,91.00
2023-05-06T05:54:26.535Z,90.80
2023-05-06T05:59:30.168Z,90.50
2023-05-06T06:04:32.548Z,90.30
2023-05-06T06:09:34.944Z,90.40
2023-05-06T06:14:38.630Z,90.10
2023-05-06T06:19:40.877Z,90.10
2023-05-06T06:24:44.031Z,90.20
2023-05-06T06:29:49.563Z,90.30
2023-05-06T06:34:51.839Z,90.20
2023-05-06T06:39:54.089Z,90.40
2023-05-06T06:44:57.736Z,90.90
2023-05-06T06:49:59.928Z,90.30
2023-05-06T06:55:02.590Z,90.40
2023-05-06T07:00:07.576Z,90.40
2023-05-06T07:05:10.399Z,91.00
2023-05-06T07:10:14.165Z,90.30
2023-05-06T07:15:17.958Z,90.20
2023-05-06T07:20:21.486Z,90.20
2023-05-06T07:25:23.778Z,90.30
2023-05-06T07:30:27.741Z,90.30
2023-05-06T07:35:30.080Z,90.10
2023-05-06T07:40:32.416Z,90.00
2023-05-06T07:45:36.104Z,90.00
2023-05-06T07:50:38.405Z,90.10
2023-05-06T07:55:40.575Z,90.20
2023-05-06T08:00:44.434Z,90.00
2023-05-06T08:05:46.696Z,89.60
2023-05-06T08:10:49.279Z,88.80
2023-05-06T08:15:52.964Z,88.90
2023-05-06T08:20:55.307Z,89.30
2023-05-06T08:25:57.570Z,89.30
2023-05-06T08:31:01.278Z,89.20
2023-05-06T08:36:03.744Z,89.20
2023-05-06T08:41:09.735Z,89.00
2023-05-06T08:46:14.140Z,89.10
2023-05-06T08:51:16.807Z,89.00
2023-05-06T08:56:20.053Z,89.30
2023-05-06T09:01:25.000Z,89.80
2023-05-06T09:06:27.318Z,90.20
2023-05-06T09:11:30.540Z,90.40
2023-05-06T09:16:34.332Z,90.70
2023-05-06T09:21:38.267Z,91.00
2023-05-06T09:26:42.690Z,90.80
2023-05-06T09:31:47.572Z,91.10
2023-05-06T09:36:49.854Z,91.10
2023-05-06T09:41:52.175Z,91.40
2023-05-06T09:46:56.172Z,91.50
2023-05-06T09:51:58.579Z,91.40
2023-05-06T09:57:02.402Z,91.20
2023-05-06T10:02:06.752Z,91.30
2023-05-06T10:07:10.470Z,91.60
2023-05-06T10:12:13.925Z,91.30
2023-05-06T10:17:19.078Z,91.20
2023-05-06T10:22:30.918Z,91.30
2023-05-06T10:27:38.808Z,91.10
2023-05-06T10:32:44.430Z,91.50
2023-05-06T10:37:49.394Z,90.90
2023-05-06T10:42:51.786Z,90.60
2023-05-06T10:48:10.774Z,90.50
2023-05-06T10:53:13.005Z,90.30
2023-05-06T10:58:16.626Z,90.30
2023-05-06T11:03:24.536Z,90.10
2023-05-06T11:08:27.198Z,90.10
2023-05-06T11:13:34.882Z,89.10
2023-05-06T11:18:46.238Z,88.20
2023-05-06T11:24:08.899Z,88.10
2023-05-06T11:29:11.282Z,86.90
2023-05-06T11:34:23.151Z,83.60
2023-05-06T11:39:26.202Z,86.00
2023-05-06T11:44:29.700Z,86.10
2023-05-06T11:49:40.870Z,84.00
2023-05-06T11:54:43.309Z,80.10
2023-05-06T11:59:45.571Z,82.00
2023-05-06T12:04:49.986Z,81.90
2023-05-06T12:09:52.548Z,77.30
2023-05-06T12:14:54.985Z,75.20
2023-05-06T12:19:58.994Z,76.30
2023-05-06T12:25:13.645Z,77.30
2023-05-06T12:30:16.000Z,76.40
2023-05-06T12:35:27.474Z,76.60
2023-05-06T12:40:29.907Z,76.50
2023-05-06T12:45:32.420Z,73.30
2023-05-06T12:50:41.186Z,73.60
2023-05-06T12:55:43.501Z,73.60
2023-05-06T13:00:45.885Z,74.50
2023-05-06T13:05:49.561Z,74.60
2023-05-06T13:10:52.920Z,74.30
2023-05-06T13:15:55.574Z,73.20
2023-05-06T13:20:59.506Z,75.40
2023-05-06T13:26:04.776Z,75.70
2023-05-06T13:31:08.488Z,75.70
2023-05-06T13:36:12.135Z,74.80
2023-05-06T13:41:15.138Z,75.50
2023-05-06T13:46:22.786Z,74.70
2023-05-06T13:51:26.921Z,74.90
2023-05-06T13:56:29.258Z,74.80
2023-05-06T14:01:31.500Z,70.90
2023-05-06T14:06:35.246Z,73.30
2023-05-06T14:11:37.464Z,73.90
2023-05-06T14:16:40.269Z,74.00
2023-05-06T14:21:43.958Z,73.50
2023-05-06T14:26:46.275Z,74.20
2023-05-06T14:31:48.517Z,74.40
2023-05-06T14:36:52.191Z,73.20
2023-05-06T14:41:54.500Z,73.30
2023-05-06T14:46:57.517Z,74.10
2023-05-06T14:52:01.236Z,74.90
2023-05-06T14:57:03.553Z,75.20
2023-05-06T15:02:09.163Z,75.20
2023-05-06T15:07:13.037Z,75.20
2023-05-06T15:12:15.898Z,74.70
2023-05-06T15:17:18.233Z,74.40
2023-05-06T15:22:21.990Z,74.60
2023-05-06T15:27:24.274Z,74.90
2023-05-06T15:32:26.544Z,75.20
2023-05-06T15:37:30.308Z,75.30
2023-05-06T15:42:32.510Z,76.10
2023-05-06T15:47:34.807Z,76.30
2023-05-06T15:52:38.857Z,77.20
2023-05-06T15:57:41.139Z,77.90
2023-05-06T16:02:43.728Z,78.30
2023-05-06T16:07:47.485Z,78.20
2023-05-06T16:12:49.908Z,78.10
2023-05-06T16:17:52.146Z,78.30
2023-05-06T16:22:55.796Z,78.60
2023-05-06T16:27:58.083Z,79.10
2023-05-06T16:33:00.340Z,79.30
2023-05-06T16:38:03.977Z,79.40
2023-05-06T16:43:06.206Z,79.50
2023-05-06T16:48:08.456Z,79.60
2023-05-06T16:53:12.280Z,79.80
2023-05-06T16:58:14.593Z,80.50
2023-05-06T17:03:16.934Z,80.90
2023-05-06T17:08:20.620Z,81.40
2023-05-06T17:13:23.203Z,81.70
2023-05-06T17:18:25.721Z,81.70
2023-05-06T17:23:29.351Z,82.20
2023-05-06T17:28:31.559Z,82.10
2023-05-06T17:33:33.833Z,82.20
2023-05-06T17:38:37.553Z,82.50
2023-05-06T17:43:39.795Z,82.40
2023-05-06T17:48:42.089Z,82.50
2023-05-06T17:53:45.944Z,83.50
2023-05-06T17:58:48.210Z,82.80
2023-05-06T18:03:50.580Z,82.90
2023-05-06T18:08:54.364Z,83.00
2023-05-06T18:13:56.621Z,83.20
2023-05-06T18:19:03.599Z,83.40
2023-05-06T18:24:15.947Z,83.50
2023-05-06T18:29:18.920Z,83.70
2023-05-06T18:34:22.259Z,83.70
2023-05-06T18:39:25.924Z,84.00
2023-05-06T18:44:28.106Z,84.00
2023-05-06T18:49:30.366Z,84.10
2023-05-06T18:54:33.970Z,84.50
2023-05-06T18:59:36.374Z,84.60
2023-05-06T19:04:38.610Z,84.70
2023-05-06T19:09:42.380Z,84.80
2023-05-06T19:14:44.711Z,85.10
2023-05-06T19:19:47.174Z,85.60
2023-05-06T19:24:52.124Z,85.50
2023-05-06T19:29:58.203Z,86.00
2023-05-06T19:35:02.285Z,86.10
2023-05-06T19:40:07.267Z,86.20
2023-05-06T19:45:10.962Z,86.20
2023-05-06T19:50:13.493Z,86.10
2023-05-06T19:55:17.467Z,86.10
2023-05-06T20:00:19.683Z,86.60
2023-05-06T20:05:27.902Z,87.00
2023-05-06T20:10:31.612Z,86.90
2023-05-06T20:15:33.916Z,87.10
2023-05-06T20:20:36.478Z,87.10
2023-05-06T20:25:40.332Z,87.30
2023-05-06T20:30:42.623Z,88.10
2023-05-06T20:35:44.871Z,87.70
2023-05-06T20:40:49.312Z,88.40
2023-05-06T20:45:51.545Z,89.30
2023-05-06T20:50:54.524Z,89.60
2023-05-06T20:55:58.194Z,89.80
2023-05-06T21:01:00.589Z,90.10
2023-05-06T21:06:03.100Z,90.20
2023-05-06T21:11:06.815Z,90.00
2023-05-06T21:16:09.087Z,90.00
2023-05-06T21:21:13.321Z,90.00
2023-05-06T21:26:17.238Z,90.20
2023-05-06T21:31:21.120Z,90.30
2023-05-06T21:36:23.667Z,90.40
2023-05-06T21:41:27.384Z,90.70
2023-05-06T21:46:29.712Z,90.80
2023-05-06T21:51:33.668Z,90.90
2023-05-06T21:56:37.278Z,90.90
2023-05-06T22:01:39.574Z,91.10
2023-05-06T22:06:41.745Z,91.10
2023-05-06T22:11:45.446Z,91.20
2023-05-06T22:16:47.765Z,91.30
2023-05-06T22:21:49.973Z,91.40
2023-05-06T22:26:53.637Z,91.40
2023-05-06T22:31:55.908Z,91.40
2023-05-06T22:36:59.753Z,91.60
2023-05-06T22:42:04.303Z,91.80
2023-05-06T22:47:06.475Z,91.70
2023-05-06T22:52:09.194Z,91.60
2023-05-06T22:57:12.852Z,91.50
2023-05-06T23:02:15.002Z,91.60
2023-05-06T23:07:17.446Z,91.60
2023-05-06T23:12:21.118Z,91.70
2023-05-06T23:17:23.370Z,91.80
2023-05-06T23:25:00.350Z,91.60
2023-05-06T23:30:02.759Z,91.90
2023-05-06T23:35:05.905Z,91.80
2023-05-06T23:40:10.464Z,91.70
2023-05-06T23:45:13.438Z,91.60
2023-05-06T23:50:15.878Z,91.50
2023-05-06T23:55:19.767Z,91.60
